sensor_id;sensor_type;location;lat;lon;timestamp;temperature;humidity
7822;DHT22;3956;50.558;9.678;2022-08-02T00:01:02;19.00;99.90
7822;DHT22;3956;50.558;9.678;2022-08-02T00:03:33;19.00;99.90
7822;DHT22;3956;50.558;9.678;2022-08-02T00:06:04;18.80;99.90
7822;DHT22;3956;50.558;9.678;2022-08-02T00:08:44;18.80;99.90
7822;DHT22;3956;50.558;9.678;2022-08-02T00:11:15;18.60;99.90
7822;DHT22;3956;50.558;9.678;2022-08-02T00:13:50;18.40;99.90
7822;DHT22;3956;50.558;9.678;2022-08-02T00:16:18;18.10;99.90
7822;DHT22;3956;50.558;9.678;2022-08-02T00:19:06;18.10;99.90
7822;DHT22;3956;50.558;9.678;2022-08-02T00:21:34;18.00;99.90
7822;DHT22;3956;50.558;9.678;2022-08-02T00:24:03;18.10;99.90
7822;DHT22;3956;50.558;9.678;2022-08-02T00:26:53;18.00;99.90
7822;DHT22;3956;50.558;9.678;2022-08-02T00:29:26;18.00;99.90
7822;DHT22;3956;50.558;9.678;2022-08-02T00:32:06;18.00;99.90
7822;DHT22;3956;50.558;9.678;2022-08-02T00:34:41;18.00;99.90
7822;DHT22;3956;50.558;9.678;2022-08-02T00:37:10;18.10;99.90
7822;DHT22;3956;50.558;9.678;2022-08-02T00:39:38;18.00;99.90
7822;DHT22;3956;50.558;9.678;2022-08-02T00:42:08;17.90;99.90
7822;DHT22;3956;50.558;9.678;2022-08-02T00:44:45;17.90;99.90
7822;DHT22;3956;50.558;9.678;2022-08-02T00:47:16;17.90;99.90
7822;DHT22;3956;50.558;9.678;2022-08-02T00:49:47;17.90;99.90
7822;DHT22;3956;50.558;9.678;2022-08-02T00:52:24;18.00;99.90
7822;DHT22;3956;50.558;9.678;2022-08-02T00:54:53;18.00;99.90
7822;DHT22;3956;50.558;9.678;2022-08-02T00:57:27;17.80;99.90
7822;DHT22;3956;50.558;9.678;2022-08-02T00:59:55;17.70;99.90
7822;DHT22;3956;50.558;9.678;2022-08-02T01:02:26;17.70;99.90
7822;DHT22;3956;50.558;9.678;2022-08-02T01:05:09;17.60;99.90
7822;DHT22;3956;50.558;9.678;2022-08-02T01:07:37;17.60;99.90
7822;DHT22;3956;50.558;9.678;2022-08-02T01:10:07;17.50;99.90
7822;DHT22;3956;50.558;9.678;2022-08-02T01:12:35;17.40;99.90
7822;DHT22;3956;50.558;9.678;2022-08-02T01:15:06;17.40;99.90
7822;DHT22;3956;50.558;9.678;2022-08-02T01:17:42;17.40;99.90
7822;DHT22;3956;50.558;9.678;2022-08-02T01:20:24;17.50;99.90
7822;DHT22;3956;50.558;9.678;2022-08-02T01:23:12;17.50;99.90
7822;DHT22;3956;50.558;9.678;2022-08-02T01:26:01;17.40;99.90
7822;DHT22;3956;50.558;9.678;2022-08-02T01:28:37;17.30;99.90
7822;DHT22;3956;50.558;9.678;2022-08-02T01:31:13;17.20;99.90
7822;DHT22;3956;50.558;9.678;2022-08-02T01:33:47;17.20;99.90
7822;DHT22;3956;50.558;9.678;2022-08-02T01:36:20;17.20;99.90
7822;DHT22;3956;50.558;9.678;2022-08-02T01:38:52;17.20;99.90
7822;DHT22;3956;50.558;9.678;2022-08-02T01:41:23;17.20;99.90
7822;DHT22;3956;50.558;9.678;2022-08-02T01:43:57;17.10;99.90
7822;DHT22;3956;50.558;9.678;2022-08-02T01:46:28;17.10;99.90
7822;DHT22;3956;50.558;9.678;2022-08-02T01:49:00;17.20;99.90
7822;DHT22;3956;50.558;9.678;2022-08-02T01:51:36;17.00;99.90
7822;DHT22;3956;50.558;9.678;2022-08-02T01:54:26;17.00;99.90
7822;DHT22;3956;50.558;9.678;2022-08-02T01:57:01;16.80;99.90
7822;DHT22;3956;50.558;9.678;2022-08-02T01:59:34;16.70;99.90
7822;DHT22;3956;50.558;9.678;2022-08-02T02:02:07;16.50;99.90
7822;DHT22;3956;50.558;9.678;2022-08-02T02:04:37;16.50;99.90
7822;DHT22;3956;50.558;9.678;2022-08-02T02:07:07;16.60;99.90
7822;DHT22;3956;50.558;9.678;2022-08-02T02:09:38;16.60;99.90
7822;DHT22;3956;50.558;9.678;2022-08-02T02:12:21;16.50;99.90
7822;DHT22;3956;50.558;9.678;2022-08-02T02:14:52;16.60;99.90
7822;DHT22;3956;50.558;9.678;2022-08-02T02:17:21;16.60;99.90
7822;DHT22;3956;50.558;9.678;2022-08-02T02:20:16;16.60;99.90
7822;DHT22;3956;50.558;9.678;2022-08-02T02:22:47;16.60;99.90
7822;DHT22;3956;50.558;9.678;2022-08-02T02:25:19;16.50;99.90
7822;DHT22;3956;50.558;9.678;2022-08-02T02:28:06;16.70;99.90
7822;DHT22;3956;50.558;9.678;2022-08-02T02:30:38;16.60;99.90
7822;DHT22;3956;50.558;9.678;2022-08-02T02:33:07;16.50;99.90
7822;DHT22;3956;50.558;9.678;2022-08-02T02:35:37;16.50;99.90
7822;DHT22;3956;50.558;9.678;2022-08-02T02:38:11;16.40;99.90
7822;DHT22;3956;50.558;9.678;2022-08-02T02:40:41;16.10;99.90
7822;DHT22;3956;50.558;9.678;2022-08-02T02:43:14;16.10;99.90
7822;DHT22;3956;50.558;9.678;2022-08-02T02:45:45;16.10;99.90
7822;DHT22;3956;50.558;9.678;2022-08-02T02:48:14;16.20;99.90
7822;DHT22;3956;50.558;9.678;2022-08-02T02:50:43;16.20;99.90
7822;DHT22;3956;50.558;9.678;2022-08-02T02:53:17;16.30;99.90
7822;DHT22;3956;50.558;9.678;2022-08-02T02:55:47;16.20;99.90
7822;DHT22;3956;50.558;9.678;2022-08-02T02:58:29;16.10;99.90
7822;DHT22;3956;50.558;9.678;2022-08-02T03:01:00;16.10;99.90
7822;DHT22;3956;50.558;9.678;2022-08-02T03:04:09;16.10;99.90
7822;DHT22;3956;50.558;9.678;2022-08-02T03:06:43;16.00;99.90
7822;DHT22;3956;50.558;9.678;2022-08-02T03:09:17;15.90;99.90
7822;DHT22;3956;50.558;9.678;2022-08-02T03:11:50;15.90;99.90
7822;DHT22;3956;50.558;9.678;2022-08-02T03:14:54;16.00;99.90
7822;DHT22;3956;50.558;9.678;2022-08-02T03:17:36;16.00;99.90
7822;DHT22;3956;50.558;9.678;2022-08-02T03:20:09;15.90;99.90
7822;DHT22;3956;50.558;9.678;2022-08-02T03:22:37;15.80;99.90
7822;DHT22;3956;50.558;9.678;2022-08-02T03:25:09;15.90;99.90
7822;DHT22;3956;50.558;9.678;2022-08-02T03:27:37;15.80;99.90
7822;DHT22;3956;50.558;9.678;2022-08-02T03:30:07;15.90;99.90
7822;DHT22;3956;50.558;9.678;2022-08-02T03:32:46;16.00;99.90
7822;DHT22;3956;50.558;9.678;2022-08-02T03:35:50;15.90;99.90
7822;DHT22;3956;50.558;9.678;2022-08-02T03:38:25;15.90;99.90
7822;DHT22;3956;50.558;9.678;2022-08-02T03:40:55;15.90;99.90
7822;DHT22;3956;50.558;9.678;2022-08-02T03:43:26;15.70;99.90
7822;DHT22;3956;50.558;9.678;2022-08-02T03:45:59;15.80;99.90
7822;DHT22;3956;50.558;9.678;2022-08-02T03:51:49;16.00;99.90
7822;DHT22;3956;50.558;9.678;2022-08-02T03:54:22;15.80;99.90
7822;DHT22;3956;50.558;9.678;2022-08-02T03:57:10;15.70;99.90
7822;DHT22;3956;50.558;9.678;2022-08-02T03:59:39;15.70;99.90
7822;DHT22;3956;50.558;9.678;2022-08-02T04:02:08;15.40;99.90
7822;DHT22;3956;50.558;9.678;2022-08-02T04:04:38;15.40;99.90
7822;DHT22;3956;50.558;9.678;2022-08-02T04:07:08;15.50;99.90
7822;DHT22;3956;50.558;9.678;2022-08-02T04:09:37;15.60;99.90
7822;DHT22;3956;50.558;9.678;2022-08-02T04:12:10;15.70;99.90
7822;DHT22;3956;50.558;9.678;2022-08-02T04:14:39;15.70;99.90
7822;DHT22;3956;50.558;9.678;2022-08-02T04:17:19;15.70;99.90
7822;DHT22;3956;50.558;9.678;2022-08-02T04:19:55;15.60;99.90
7822;DHT22;3956;50.558;9.678;2022-08-02T04:22:42;15.60;99.90
7822;DHT22;3956;50.558;9.678;2022-08-02T04:25:22;15.70;99.90
7822;DHT22;3956;50.558;9.678;2022-08-02T04:28:06;15.90;99.90
7822;DHT22;3956;50.558;9.678;2022-08-02T04:30:44;15.80;99.90
7822;DHT22;3956;50.558;9.678;2022-08-02T04:33:13;15.70;99.90
7822;DHT22;3956;50.558;9.678;2022-08-02T04:35:46;15.80;99.90
7822;DHT22;3956;50.558;9.678;2022-08-02T04:38:23;15.70;99.90
7822;DHT22;3956;50.558;9.678;2022-08-02T04:41:50;15.90;99.90
7822;DHT22;3956;50.558;9.678;2022-08-02T04:45:00;15.90;99.90
7822;DHT22;3956;50.558;9.678;2022-08-02T04:47:59;16.00;99.90
7822;DHT22;3956;50.558;9.678;2022-08-02T04:50:43;15.90;99.90
7822;DHT22;3956;50.558;9.678;2022-08-02T04:53:36;16.00;99.90
7822;DHT22;3956;50.558;9.678;2022-08-02T04:56:08;16.00;99.90
7822;DHT22;3956;50.558;9.678;2022-08-02T04:58:38;16.10;99.90
7822;DHT22;3956;50.558;9.678;2022-08-02T05:01:16;16.10;99.90
7822;DHT22;3956;50.558;9.678;2022-08-02T05:03:48;15.90;99.90
7822;DHT22;3956;50.558;9.678;2022-08-02T05:06:32;15.90;99.90
7822;DHT22;3956;50.558;9.678;2022-08-02T05:09:08;15.90;99.90
7822;DHT22;3956;50.558;9.678;2022-08-02T05:11:39;15.90;99.90
7822;DHT22;3956;50.558;9.678;2022-08-02T05:14:11;16.00;99.90
7822;DHT22;3956;50.558;9.678;2022-08-02T05:16:40;15.80;99.90
7822;DHT22;3956;50.558;9.678;2022-08-02T05:19:10;15.80;99.90
7822;DHT22;3956;50.558;9.678;2022-08-02T05:22:09;15.80;99.90
7822;DHT22;3956;50.558;9.678;2022-08-02T05:26:03;16.00;99.90
7822;DHT22;3956;50.558;9.678;2022-08-02T05:29:16;16.30;99.90
7822;DHT22;3956;50.558;9.678;2022-08-02T05:31:50;16.40;99.90
7822;DHT22;3956;50.558;9.678;2022-08-02T05:34:21;16.60;99.90
7822;DHT22;3956;50.558;9.678;2022-08-02T05:36:49;16.80;99.90
7822;DHT22;3956;50.558;9.678;2022-08-02T05:39:31;16.70;99.90
7822;DHT22;3956;50.558;9.678;2022-08-02T05:42:32;16.80;99.90
7822;DHT22;3956;50.558;9.678;2022-08-02T05:45:02;16.60;99.90
7822;DHT22;3956;50.558;9.678;2022-08-02T05:47:30;16.70;99.90
7822;DHT22;3956;50.558;9.678;2022-08-02T05:50:00;16.60;99.90
7822;DHT22;3956;50.558;9.678;2022-08-02T05:52:43;16.50;99.90
7822;DHT22;3956;50.558;9.678;2022-08-02T05:55:39;16.40;99.90
7822;DHT22;3956;50.558;9.678;2022-08-02T06:02:23;16.60;99.90
7822;DHT22;3956;50.558;9.678;2022-08-02T06:05:18;16.50;99.90
7822;DHT22;3956;50.558;9.678;2022-08-02T06:07:57;16.70;99.90
7822;DHT22;3956;50.558;9.678;2022-08-02T06:10:41;16.70;99.90
7822;DHT22;3956;50.558;9.678;2022-08-02T06:13:52;16.70;99.90
7822;DHT22;3956;50.558;9.678;2022-08-02T06:16:29;16.90;99.90
7822;DHT22;3956;50.558;9.678;2022-08-02T06:19:13;16.80;99.90
7822;DHT22;3956;50.558;9.678;2022-08-02T06:21:49;17.00;99.90
7822;DHT22;3956;50.558;9.678;2022-08-02T06:24:39;17.00;99.90
7822;DHT22;3956;50.558;9.678;2022-08-02T06:27:07;17.00;99.90
7822;DHT22;3956;50.558;9.678;2022-08-02T06:29:38;16.90;99.90
7822;DHT22;3956;50.558;9.678;2022-08-02T06:32:12;16.80;99.90
7822;DHT22;3956;50.558;9.678;2022-08-02T06:34:47;17.00;99.90
7822;DHT22;3956;50.558;9.678;2022-08-02T06:37:35;17.20;99.90
7822;DHT22;3956;50.558;9.678;2022-08-02T06:40:22;17.20;99.90
7822;DHT22;3956;50.558;9.678;2022-08-02T06:43:11;17.30;99.90
7822;DHT22;3956;50.558;9.678;2022-08-02T06:45:41;17.50;99.90
7822;DHT22;3956;50.558;9.678;2022-08-02T06:48:12;17.60;99.90
7822;DHT22;3956;50.558;9.678;2022-08-02T06:50:44;17.80;99.90
7822;DHT22;3956;50.558;9.678;2022-08-02T06:53:15;18.00;99.90
7822;DHT22;3956;50.558;9.678;2022-08-02T06:55:49;18.20;99.90
7822;DHT22;3956;50.558;9.678;2022-08-02T06:58:17;18.40;99.90
7822;DHT22;3956;50.558;9.678;2022-08-02T07:00:57;18.60;99.90
7822;DHT22;3956;50.558;9.678;2022-08-02T07:04:22;18.60;99.90
7822;DHT22;3956;50.558;9.678;2022-08-02T07:14:17;24.30;99.90
7822;DHT22;3956;50.558;9.678;2022-08-02T07:16:45;26.20;99.90
7822;DHT22;3956;50.558;9.678;2022-08-02T07:19:13;26.60;99.90
7822;DHT22;3956;50.558;9.678;2022-08-02T07:21:48;25.90;99.90
7822;DHT22;3956;50.558;9.678;2022-08-02T07:24:41;26.60;99.90
7822;DHT22;3956;50.558;9.678;2022-08-02T07:27:13;26.70;99.90
7822;DHT22;3956;50.558;9.678;2022-08-02T07:29:43;26.70;99.90
7822;DHT22;3956;50.558;9.678;2022-08-02T07:32:14;26.20;99.90
7822;DHT22;3956;50.558;9.678;2022-08-02T07:34:43;27.10;99.90
7822;DHT22;3956;50.558;9.678;2022-08-02T07:37:32;26.70;99.90
7822;DHT22;3956;50.558;9.678;2022-08-02T07:40:47;26.20;99.90
7822;DHT22;3956;50.558;9.678;2022-08-02T07:43:56;28.10;99.90
7822;DHT22;3956;50.558;9.678;2022-08-02T07:47:16;28.80;99.90
7822;DHT22;3956;50.558;9.678;2022-08-02T07:50:03;28.90;99.90
7822;DHT22;3956;50.558;9.678;2022-08-02T07:53:05;28.60;99.90
7822;DHT22;3956;50.558;9.678;2022-08-02T07:56:17;28.60;99.90
7822;DHT22;3956;50.558;9.678;2022-08-02T07:58:45;28.90;99.90
7822;DHT22;3956;50.558;9.678;2022-08-02T08:01:14;28.50;99.90
7822;DHT22;3956;50.558;9.678;2022-08-02T08:03:44;28.30;99.90
7822;DHT22;3956;50.558;9.678;2022-08-02T08:06:21;27.30;99.90
7822;DHT22;3956;50.558;9.678;2022-08-02T08:09:29;29.80;99.90
7822;DHT22;3956;50.558;9.678;2022-08-02T08:12:22;29.60;99.90
7822;DHT22;3956;50.558;9.678;2022-08-02T08:14:50;28.40;99.90
7822;DHT22;3956;50.558;9.678;2022-08-02T08:17:18;28.90;99.90
7822;DHT22;3956;50.558;9.678;2022-08-02T08:19:49;30.10;99.90
7822;DHT22;3956;50.558;9.678;2022-08-02T08:22:25;29.40;99.90
7822;DHT22;3956;50.558;9.678;2022-08-02T08:25:26;29.80;99.90
7822;DHT22;3956;50.558;9.678;2022-08-02T08:28:07;30.30;99.90
7822;DHT22;3956;50.558;9.678;2022-08-02T08:30:35;29.90;99.90
7822;DHT22;3956;50.558;9.678;2022-08-02T08:33:05;29.30;99.90
7822;DHT22;3956;50.558;9.678;2022-08-02T08:35:53;29.40;99.90
7822;DHT22;3956;50.558;9.678;2022-08-02T08:38:24;30.00;99.90
7822;DHT22;3956;50.558;9.678;2022-08-02T08:41:23;28.60;99.90
7822;DHT22;3956;50.558;9.678;2022-08-02T08:44:18;28.60;99.90
7822;DHT22;3956;50.558;9.678;2022-08-02T08:46:55;29.00;99.90
7822;DHT22;3956;50.558;9.678;2022-08-02T08:49:26;28.10;99.90
7822;DHT22;3956;50.558;9.678;2022-08-02T08:52:16;28.00;99.90
7822;DHT22;3956;50.558;9.678;2022-08-02T08:55:11;29.00;99.90
7822;DHT22;3956;50.558;9.678;2022-08-02T08:58:06;29.30;99.90
7822;DHT22;3956;50.558;9.678;2022-08-02T09:00:36;29.20;99.90
7822;DHT22;3956;50.558;9.678;2022-08-02T09:03:19;27.80;99.90
7822;DHT22;3956;50.558;9.678;2022-08-02T09:08:16;27.50;99.90
7822;DHT22;3956;50.558;9.678;2022-08-02T09:11:27;27.80;99.90
7822;DHT22;3956;50.558;9.678;2022-08-02T09:14:28;28.90;99.90
7822;DHT22;3956;50.558;9.678;2022-08-02T09:17:34;28.90;99.90
7822;DHT22;3956;50.558;9.678;2022-08-02T09:20:18;29.80;99.90
7822;DHT22;3956;50.558;9.678;2022-08-02T09:23:10;29.10;99.90
7822;DHT22;3956;50.558;9.678;2022-08-02T09:26:20;28.90;99.90
7822;DHT22;3956;50.558;9.678;2022-08-02T09:29:24;28.00;99.90
7822;DHT22;3956;50.558;9.678;2022-08-02T09:42:58;27.60;99.90
7822;DHT22;3956;50.558;9.678;2022-08-02T09:45:30;26.80;99.90
7822;DHT22;3956;50.558;9.678;2022-08-02T09:48:01;26.30;99.90
7822;DHT22;3956;50.558;9.678;2022-08-02T09:50:31;26.20;99.90
7822;DHT22;3956;50.558;9.678;2022-08-02T09:52:59;26.10;99.90
7822;DHT22;3956;50.558;9.678;2022-08-02T09:55:32;26.20;99.90
7822;DHT22;3956;50.558;9.678;2022-08-02T09:58:18;25.40;99.90
7822;DHT22;3956;50.558;9.678;2022-08-02T10:00:53;25.80;99.90
7822;DHT22;3956;50.558;9.678;2022-08-02T10:03:23;25.90;99.90
7822;DHT22;3956;50.558;9.678;2022-08-02T10:06:05;25.90;99.90
7822;DHT22;3956;50.558;9.678;2022-08-02T10:09:17;26.60;99.90
7822;DHT22;3956;50.558;9.678;2022-08-02T10:12:47;26.70;99.90
7822;DHT22;3956;50.558;9.678;2022-08-02T10:20:18;26.20;99.90
7822;DHT22;3956;50.558;9.678;2022-08-02T10:23:59;26.20;99.90
7822;DHT22;3956;50.558;9.678;2022-08-02T10:27:15;25.60;99.90
7822;DHT22;3956;50.558;9.678;2022-08-02T10:29:46;25.50;99.90
7822;DHT22;3956;50.558;9.678;2022-08-02T10:32:26;25.50;99.90
7822;DHT22;3956;50.558;9.678;2022-08-02T10:35:07;25.90;99.90
7822;DHT22;3956;50.558;9.678;2022-08-02T10:49:08;26.80;99.90
7822;DHT22;3956;50.558;9.678;2022-08-02T10:52:13;26.20;99.90
7822;DHT22;3956;50.558;9.678;2022-08-02T10:54:56;25.80;99.90
7822;DHT22;3956;50.558;9.678;2022-08-02T10:58:04;26.00;99.90
7822;DHT22;3956;50.558;9.678;2022-08-02T11:01:42;26.50;99.90
7822;DHT22;3956;50.558;9.678;2022-08-02T11:05:12;26.60;99.90
7822;DHT22;3956;50.558;9.678;2022-08-02T11:07:50;26.60;99.90
7822;DHT22;3956;50.558;9.678;2022-08-02T11:10:30;26.80;99.90
7822;DHT22;3956;50.558;9.678;2022-08-02T11:13:04;26.90;99.90
7822;DHT22;3956;50.558;9.678;2022-08-02T11:15:53;26.60;99.90
7822;DHT22;3956;50.558;9.678;2022-08-02T11:19:04;26.50;99.90
7822;DHT22;3956;50.558;9.678;2022-08-02T11:21:38;26.70;99.90
7822;DHT22;3956;50.558;9.678;2022-08-02T11:24:28;26.40;99.90
7822;DHT22;3956;50.558;9.678;2022-08-02T11:27:23;26.40;99.90
7822;DHT22;3956;50.558;9.678;2022-08-02T11:29:59;25.80;99.90
7822;DHT22;3956;50.558;9.678;2022-08-02T11:32:28;25.60;99.90
7822;DHT22;3956;50.558;9.678;2022-08-02T11:34:59;26.10;99.90
7822;DHT22;3956;50.558;9.678;2022-08-02T11:38:18;26.20;99.90
7822;DHT22;3956;50.558;9.678;2022-08-02T11:40:55;26.80;99.90
7822;DHT22;3956;50.558;9.678;2022-08-02T11:43:35;26.30;99.90
7822;DHT22;3956;50.558;9.678;2022-08-02T11:46:12;26.60;99.90
7822;DHT22;3956;50.558;9.678;2022-08-02T11:48:41;26.70;99.90
7822;DHT22;3956;50.558;9.678;2022-08-02T11:51:12;27.20;99.90
7822;DHT22;3956;50.558;9.678;2022-08-02T11:54:05;27.00;99.90
7822;DHT22;3956;50.558;9.678;2022-08-02T11:56:42;27.10;99.90
7822;DHT22;3956;50.558;9.678;2022-08-02T11:59:21;26.70;99.90
7822;DHT22;3956;50.558;9.678;2022-08-02T12:01:55;26.60;99.90
7822;DHT22;3956;50.558;9.678;2022-08-02T12:04:25;26.70;99.90
7822;DHT22;3956;50.558;9.678;2022-08-02T12:06:59;27.00;99.90
7822;DHT22;3956;50.558;9.678;2022-08-02T12:13:45;27.00;99.90
7822;DHT22;3956;50.558;9.678;2022-08-02T12:20:20;27.00;99.90
7822;DHT22;3956;50.558;9.678;2022-08-02T12:26:40;26.90;99.90
7822;DHT22;3956;50.558;9.678;2022-08-02T12:30:18;27.20;99.90
7822;DHT22;3956;50.558;9.678;2022-08-02T12:33:12;27.20;99.90
7822;DHT22;3956;50.558;9.678;2022-08-02T12:35:43;27.10;99.90
7822;DHT22;3956;50.558;9.678;2022-08-02T12:38:18;27.20;99.90
7822;DHT22;3956;50.558;9.678;2022-08-02T12:41:15;26.90;99.90
7822;DHT22;3956;50.558;9.678;2022-08-02T12:44:12;26.70;99.90
7822;DHT22;3956;50.558;9.678;2022-08-02T12:47:22;27.40;99.90
7822;DHT22;3956;50.558;9.678;2022-08-02T12:50:14;27.50;99.90
7822;DHT22;3956;50.558;9.678;2022-08-02T12:52:47;27.70;99.90
7822;DHT22;3956;50.558;9.678;2022-08-02T12:55:18;27.50;99.90
7822;DHT22;3956;50.558;9.678;2022-08-02T12:57:57;28.00;99.90
7822;DHT22;3956;50.558;9.678;2022-08-02T13:00:28;28.20;99.90
7822;DHT22;3956;50.558;9.678;2022-08-02T13:03:01;28.20;99.90
7822;DHT22;3956;50.558;9.678;2022-08-02T13:05:51;28.10;99.90
7822;DHT22;3956;50.558;9.678;2022-08-02T13:08:30;28.40;99.90
7822;DHT22;3956;50.558;9.678;2022-08-02T13:10:58;28.30;99.90
7822;DHT22;3956;50.558;9.678;2022-08-02T13:13:31;28.40;99.90
7822;DHT22;3956;50.558;9.678;2022-08-02T13:16:22;27.90;99.90
7822;DHT22;3956;50.558;9.678;2022-08-02T13:23:03;28.00;99.90
7822;DHT22;3956;50.558;9.678;2022-08-02T13:26:07;28.30;99.90
7822;DHT22;3956;50.558;9.678;2022-08-02T13:29:20;28.30;99.90
7822;DHT22;3956;50.558;9.678;2022-08-02T13:32:15;28.30;99.90
7822;DHT22;3956;50.558;9.678;2022-08-02T13:34:43;28.00;99.90
7822;DHT22;3956;50.558;9.678;2022-08-02T13:37:19;28.30;99.90
7822;DHT22;3956;50.558;9.678;2022-08-02T13:43:25;28.30;99.90
7822;DHT22;3956;50.558;9.678;2022-08-02T13:46:18;27.70;99.90
7822;DHT22;3956;50.558;9.678;2022-08-02T13:49:17;28.00;99.90
7822;DHT22;3956;50.558;9.678;2022-08-02T13:52:36;28.20;99.90
7822;DHT22;3956;50.558;9.678;2022-08-02T13:56:07;29.20;99.90
7822;DHT22;3956;50.558;9.678;2022-08-02T14:02:41;29.00;99.90
7822;DHT22;3956;50.558;9.678;2022-08-02T14:05:10;28.40;99.90
7822;DHT22;3956;50.558;9.678;2022-08-02T14:07:39;28.40;99.90
7822;DHT22;3956;50.558;9.678;2022-08-02T14:10:12;28.80;99.90
7822;DHT22;3956;50.558;9.678;2022-08-02T14:12:46;29.00;99.90
7822;DHT22;3956;50.558;9.678;2022-08-02T14:15:28;29.00;99.90
7822;DHT22;3956;50.558;9.678;2022-08-02T14:17:58;29.00;99.90
7822;DHT22;3956;50.558;9.678;2022-08-02T14:23:54;29.00;99.90
7822;DHT22;3956;50.558;9.678;2022-08-02T14:26:46;29.00;99.90
7822;DHT22;3956;50.558;9.678;2022-08-02T14:30:20;28.70;99.90
7822;DHT22;3956;50.558;9.678;2022-08-02T14:33:29;28.60;99.90
7822;DHT22;3956;50.558;9.678;2022-08-02T14:36:22;28.30;99.90
7822;DHT22;3956;50.558;9.678;2022-08-02T14:38:54;28.40;99.90
7822;DHT22;3956;50.558;9.678;2022-08-02T14:41:25;28.20;99.90
7822;DHT22;3956;50.558;9.678;2022-08-02T14:44:14;28.40;99.90
7822;DHT22;3956;50.558;9.678;2022-08-02T14:47:07;28.60;99.90
7822;DHT22;3956;50.558;9.678;2022-08-02T14:49:52;28.50;99.90
7822;DHT22;3956;50.558;9.678;2022-08-02T14:52:43;28.40;99.90
7822;DHT22;3956;50.558;9.678;2022-08-02T14:59:52;28.80;99.90
7822;DHT22;3956;50.558;9.678;2022-08-02T15:05:52;28.30;99.90
7822;DHT22;3956;50.558;9.678;2022-08-02T15:08:35;28.40;99.90
7822;DHT22;3956;50.558;9.678;2022-08-02T15:11:06;29.00;99.90
7822;DHT22;3956;50.558;9.678;2022-08-02T15:16:45;28.50;99.90
7822;DHT22;3956;50.558;9.678;2022-08-02T15:20:06;28.50;99.90
7822;DHT22;3956;50.558;9.678;2022-08-02T15:22:58;28.40;99.90
7822;DHT22;3956;50.558;9.678;2022-08-02T15:25:46;28.40;99.90
7822;DHT22;3956;50.558;9.678;2022-08-02T15:28:17;28.60;99.90
7822;DHT22;3956;50.558;9.678;2022-08-02T15:30:45;28.80;99.90
7822;DHT22;3956;50.558;9.678;2022-08-02T15:33:15;28.60;99.90
7822;DHT22;3956;50.558;9.678;2022-08-02T15:35:48;28.50;99.90
7822;DHT22;3956;50.558;9.678;2022-08-02T15:45:36;28.40;99.90
7822;DHT22;3956;50.558;9.678;2022-08-02T15:48:11;28.50;99.90
7822;DHT22;3956;50.558;9.678;2022-08-02T15:50:39;28.50;99.90
7822;DHT22;3956;50.558;9.678;2022-08-02T15:53:14;28.60;99.90
7822;DHT22;3956;50.558;9.678;2022-08-02T15:56:03;28.40;99.90
7822;DHT22;3956;50.558;9.678;2022-08-02T15:58:41;28.30;99.90
7822;DHT22;3956;50.558;9.678;2022-08-02T16:01:25;28.30;99.90
7822;DHT22;3956;50.558;9.678;2022-08-02T16:04:06;28.40;99.90
7822;DHT22;3956;50.558;9.678;2022-08-02T16:06:39;28.60;99.90
7822;DHT22;3956;50.558;9.678;2022-08-02T16:09:07;28.60;99.90
7822;DHT22;3956;50.558;9.678;2022-08-02T16:11:36;28.60;99.90
7822;DHT22;3956;50.558;9.678;2022-08-02T16:14:05;28.30;99.90
7822;DHT22;3956;50.558;9.678;2022-08-02T16:16:58;28.40;99.90
7822;DHT22;3956;50.558;9.678;2022-08-02T16:19:37;28.20;99.90
7822;DHT22;3956;50.558;9.678;2022-08-02T16:22:19;28.20;99.90
7822;DHT22;3956;50.558;9.678;2022-08-02T16:25:01;28.30;99.90
7822;DHT22;3956;50.558;9.678;2022-08-02T16:28:09;28.30;99.90
7822;DHT22;3956;50.558;9.678;2022-08-02T16:31:45;28.40;99.90
7822;DHT22;3956;50.558;9.678;2022-08-02T16:34:27;28.10;99.90
7822;DHT22;3956;50.558;9.678;2022-08-02T16:37:15;28.00;99.90
7822;DHT22;3956;50.558;9.678;2022-08-02T16:39:46;28.10;99.90
7822;DHT22;3956;50.558;9.678;2022-08-02T16:42:17;28.00;99.90
7822;DHT22;3956;50.558;9.678;2022-08-02T16:44:52;28.20;99.90
7822;DHT22;3956;50.558;9.678;2022-08-02T16:47:40;28.10;99.90
7822;DHT22;3956;50.558;9.678;2022-08-02T16:50:39;28.20;99.90
7822;DHT22;3956;50.558;9.678;2022-08-02T16:53:44;28.10;99.90
7822;DHT22;3956;50.558;9.678;2022-08-02T16:56:40;27.90;99.90
7822;DHT22;3956;50.558;9.678;2022-08-02T16:59:14;27.80;99.90
7822;DHT22;3956;50.558;9.678;2022-08-02T17:01:49;27.70;99.90
7822;DHT22;3956;50.558;9.678;2022-08-02T17:04:59;27.80;99.90
7822;DHT22;3956;50.558;9.678;2022-08-02T17:08:12;27.80;99.90
7822;DHT22;3956;50.558;9.678;2022-08-02T17:10:46;27.90;99.90
7822;DHT22;3956;50.558;9.678;2022-08-02T17:13:24;28.00;99.90
7822;DHT22;3956;50.558;9.678;2022-08-02T17:16:27;27.70;99.90
7822;DHT22;3956;50.558;9.678;2022-08-02T17:18:57;27.70;99.90
7822;DHT22;3956;50.558;9.678;2022-08-02T17:21:26;27.70;99.90
7822;DHT22;3956;50.558;9.678;2022-08-02T17:24:03;27.60;99.90
7822;DHT22;3956;50.558;9.678;2022-08-02T17:26:39;27.70;99.90
7822;DHT22;3956;50.558;9.678;2022-08-02T17:29:09;27.70;99.90
7822;DHT22;3956;50.558;9.678;2022-08-02T17:35:13;27.60;99.90
7822;DHT22;3956;50.558;9.678;2022-08-02T17:38:28;27.60;99.90
7822;DHT22;3956;50.558;9.678;2022-08-02T17:41:50;27.50;99.90
7822;DHT22;3956;50.558;9.678;2022-08-02T17:44:29;27.40;99.90
7822;DHT22;3956;50.558;9.678;2022-08-02T17:47:09;27.20;99.90
7822;DHT22;3956;50.558;9.678;2022-08-02T17:50:09;27.20;99.90
7822;DHT22;3956;50.558;9.678;2022-08-02T17:52:47;27.10;99.90
7822;DHT22;3956;50.558;9.678;2022-08-02T17:55:27;27.10;99.90
7822;DHT22;3956;50.558;9.678;2022-08-02T17:58:20;27.10;99.90
7822;DHT22;3956;50.558;9.678;2022-08-02T18:01:41;27.00;99.90
7822;DHT22;3956;50.558;9.678;2022-08-02T18:05:09;27.00;99.90
7822;DHT22;3956;50.558;9.678;2022-08-02T18:08:27;26.90;99.90
7822;DHT22;3956;50.558;9.678;2022-08-02T18:11:14;26.90;99.90
7822;DHT22;3956;50.558;9.678;2022-08-02T18:17:54;26.80;99.90
7822;DHT22;3956;50.558;9.678;2022-08-02T18:20:33;26.70;99.90
7822;DHT22;3956;50.558;9.678;2022-08-02T18:23:30;26.70;99.90
7822;DHT22;3956;50.558;9.678;2022-08-02T18:27:19;26.60;99.90
7822;DHT22;3956;50.558;9.678;2022-08-02T18:30:07;26.50;99.90
7822;DHT22;3956;50.558;9.678;2022-08-02T18:32:38;26.50;99.90
7822;DHT22;3956;50.558;9.678;2022-08-02T18:35:31;26.40;99.90
7822;DHT22;3956;50.558;9.678;2022-08-02T18:38:08;26.40;99.90
7822;DHT22;3956;50.558;9.678;2022-08-02T18:40:41;26.30;99.90
7822;DHT22;3956;50.558;9.678;2022-08-02T18:43:21;26.20;99.90
7822;DHT22;3956;50.558;9.678;2022-08-02T18:45:57;26.20;99.90
7822;DHT22;3956;50.558;9.678;2022-08-02T18:48:32;26.20;99.90
7822;DHT22;3956;50.558;9.678;2022-08-02T18:51:04;26.20;99.90
7822;DHT22;3956;50.558;9.678;2022-08-02T18:53:34;26.10;99.90
7822;DHT22;3956;50.558;9.678;2022-08-02T18:56:11;26.00;99.90
7822;DHT22;3956;50.558;9.678;2022-08-02T18:58:52;25.90;99.90
7822;DHT22;3956;50.558;9.678;2022-08-02T19:01:21;25.80;99.90
7822;DHT22;3956;50.558;9.678;2022-08-02T19:04:11;25.70;99.90
7822;DHT22;3956;50.558;9.678;2022-08-02T19:06:42;25.60;99.90
7822;DHT22;3956;50.558;9.678;2022-08-02T19:09:15;25.60;99.90
7822;DHT22;3956;50.558;9.678;2022-08-02T19:11:46;25.50;99.90
7822;DHT22;3956;50.558;9.678;2022-08-02T19:14:26;25.40;99.90
7822;DHT22;3956;50.558;9.678;2022-08-02T19:17:25;25.30;99.90